Time;durP1;ratioP1;P1;durP2;ratioP2;P2;SDS_P1;SDS_P2;PMS_P1;PMS_P2;Temp;Humidity;BMP_temperature;BMP_pressure;BME280_temperature;BME280_humidity;BME280_pressure;Samples;Min_cycle;Max_cycle;Signal;HPM_P1;HPM_P2
2024/02/17 00:00:05;;;;;;;0.00;0.00;;;26.20;46.60;;;;;;5028716;28;20220;-43
2024/02/17 00:02:36;;;;;;;0.00;0.00;;;26.20;46.50;;;;;;5029019;28;20278;-45
2024/02/17 00:05:07;;;;;;;0.00;0.00;;;26.20;46.50;;;;;;5028763;28;20215;-47
2024/02/17 00:07:38;;;;;;;0.00;0.00;;;26.20;46.50;;;;;;5028407;28;20196;-46
2024/02/17 00:10:09;;;;;;;0.00;0.00;;;26.30;46.60;;;;;;5022893;28;20228;-45
2024/02/17 00:12:42;;;;;;;0.00;0.00;;;26.30;46.60;;;;;;4989242;28;20288;-48
2024/02/17 00:15:13;;;;;;;0.00;0.00;;;26.30;46.50;;;;;;4990197;28;20245;-46
2024/02/17 00:17:43;;;;;;;0.00;0.00;;;26.40;46.50;;;;;;4994009;28;20192;-42
2024/02/17 00:20:14;;;;;;;0.00;0.00;;;26.50;46.60;;;;;;5007233;28;20223;-41
2024/02/17 00:22:45;;;;;;;0.00;0.00;;;26.40;46.50;;;;;;5028098;28;20665;-43
2024/02/17 00:25:16;;;;;;;0.00;0.00;;;26.50;46.60;;;;;;5021558;28;20212;-43
2024/02/17 00:27:48;;;;;;;0.00;0.00;;;26.50;46.60;;;;;;5008869;28;20204;-46
2024/02/17 00:30:20;;;;;;;0.00;0.00;;;26.50;46.60;;;;;;5008720;28;20587;-42
2024/02/17 00:32:51;;;;;;;0.00;0.00;;;26.50;46.60;;;;;;5017469;28;20287;-47
2024/02/17 00:35:21;;;;;;;0.00;0.00;;;26.60;46.60;;;;;;5028989;28;20246;-42
2024/02/17 00:37:52;;;;;;;0.00;0.00;;;26.60;46.60;;;;;;5028209;28;20215;-46
2024/02/17 00:40:23;;;;;;;0.00;0.00;;;26.60;46.50;;;;;;5022066;28;20220;-42
2024/02/17 00:42:55;;;;;;;0.00;0.00;;;26.70;46.60;;;;;;5008370;28;20203;-46
2024/02/17 00:45:26;;;;;;;0.00;0.00;;;26.70;46.50;;;;;;5012997;28;20203;-47
2024/02/17 00:47:57;;;;;;;0.00;0.00;;;26.70;46.50;;;;;;5012432;28;20571;-45
2024/02/17 00:50:27;;;;;;;0.00;0.00;;;26.80;46.50;;;;;;5012638;28;20346;-50
2024/02/17 00:52:58;;;;;;;0.00;0.00;;;26.80;46.50;;;;;;5011875;28;20653;-45
2024/02/17 00:55:29;;;;;;;0.00;0.00;;;26.80;46.40;;;;;;5011999;28;20221;-44
2024/02/17 00:58:02;;;;;;;0.00;0.00;;;26.80;46.30;;;;;;5012073;28;20201;-47
2024/02/17 01:00:32;;;;;;;0.00;0.00;;;26.80;46.30;;;;;;5011795;28;20205;-44
2024/02/17 01:03:03;;;;;;;0.00;0.00;;;26.90;46.30;;;;;;5011692;28;20645;-47
2024/02/17 01:05:34;;;;;;;0.00;0.00;;;26.90;46.30;;;;;;5011843;28;20676;-47
2024/02/17 01:08:04;;;;;;;0.00;0.00;;;26.90;46.30;;;;;;5011579;28;20196;-45
2024/02/17 01:10:35;;;;;;;0.00;0.00;;;26.90;46.20;;;;;;5011987;28;20568;-47
2024/02/17 01:13:09;;;;;;;0.00;0.00;;;27.00;46.20;;;;;;5012286;28;20193;-45
2024/02/17 01:15:39;;;;;;;0.00;0.00;;;27.00;46.20;;;;;;5011478;28;20228;-47
2024/02/17 01:18:10;;;;;;;0.00;0.00;;;27.00;46.10;;;;;;5011443;28;20197;-50
2024/02/17 01:20:41;;;;;;;0.00;0.00;;;27.00;46.10;;;;;;5008702;28;20188;-46
2024/02/17 01:23:12;;;;;;;0.00;0.00;;;27.00;46.10;;;;;;5011784;28;20211;-46
2024/02/17 01:25:42;;;;;;;0.00;0.00;;;27.00;46.10;;;;;;5011358;28;20602;-44
2024/02/17 01:28:15;;;;;;;0.00;0.00;;;27.10;46.10;;;;;;5011327;28;20207;-49
2024/02/17 01:30:46;;;;;;;0.00;0.00;;;27.10;46.00;;;;;;5011667;28;20197;-46
2024/02/17 01:33:17;;;;;;;0.00;0.00;;;27.10;46.00;;;;;;5011764;28;20294;-45
2024/02/17 01:35:48;;;;;;;0.00;0.00;;;27.10;46.00;;;;;;5010862;28;20279;-45
2024/02/17 01:38:18;;;;;;;0.00;0.00;;;27.10;46.00;;;;;;5010488;28;20192;-45
2024/02/17 01:40:49;;;;;;;0.00;0.00;;;27.20;46.00;;;;;;5011295;28;20211;-45
2024/02/17 01:43:22;;;;;;;0.00;0.00;;;27.20;46.00;;;;;;5011529;28;20646;-45
2024/02/17 01:45:53;;;;;;;0.00;0.00;;;27.20;45.90;;;;;;5011373;28;20204;-44
2024/02/17 01:48:24;;;;;;;0.00;0.00;;;27.30;45.90;;;;;;5011650;28;20217;-48
2024/02/17 01:50:54;;;;;;;0.00;0.00;;;27.30;45.90;;;;;;5011609;28;20204;-44
2024/02/17 01:53:25;;;;;;;0.00;0.00;;;27.30;45.90;;;;;;5011771;28;20196;-49
2024/02/17 01:55:57;;;;;;;0.00;0.00;;;27.30;45.80;;;;;;5011627;28;20229;-47
2024/02/17 01:58:30;;;;;;;0.00;0.00;;;27.30;45.80;;;;;;5011331;28;20224;-45
2024/02/17 02:01:00;;;;;;;0.00;0.00;;;27.30;45.60;;;;;;4996668;28;20204;-45
2024/02/17 02:03:32;;;;;;;0.00;0.00;;;27.40;45.70;;;;;;4995729;28;20197;-46
2024/02/17 02:06:02;;;;;;;0.00;0.00;;;27.40;45.60;;;;;;4995944;28;20197;-48
2024/02/17 02:08:33;;;;;;;0.00;0.00;;;27.40;45.40;;;;;;4995731;28;20304;-45
2024/02/17 02:11:04;;;;;;;0.00;0.00;;;27.40;45.40;;;;;;5007178;28;20205;-49
2024/02/17 02:13:36;;;;;;;0.00;0.00;;;27.40;45.30;;;;;;5015092;28;20192;-45
2024/02/17 02:16:07;;;;;;;0.00;0.00;;;27.40;45.30;;;;;;5014546;28;20196;-48
2024/02/17 02:18:38;;;;;;;0.00;0.00;;;27.50;45.30;;;;;;5014859;28;20689;-47
2024/02/17 02:21:09;;;;;;;0.00;0.00;;;27.50;45.30;;;;;;5015261;28;20208;-48
2024/02/17 02:23:39;;;;;;;0.00;0.00;;;27.50;45.30;;;;;;5014997;28;20197;-45
2024/02/17 02:26:12;;;;;;;0.00;0.00;;;27.50;45.20;;;;;;5015365;28;20201;-49
2024/02/17 02:28:43;;;;;;;0.00;0.00;;;27.50;45.30;;;;;;5014643;28;20217;-43
2024/02/17 02:31:13;;;;;;;0.00;0.00;;;27.50;45.30;;;;;;5014453;28;20208;-44
2024/02/17 02:33:44;;;;;;;0.00;0.00;;;27.60;45.30;;;;;;5014513;28;20189;-49
2024/02/17 02:36:16;;;;;;;0.00;0.00;;;27.60;45.30;;;;;;5014767;28;20219;-43
2024/02/17 02:38:47;;;;;;;0.00;0.00;;;27.60;45.30;;;;;;5014875;28;20271;-48
2024/02/17 02:41:20;;;;;;;0.00;0.00;;;27.60;45.30;;;;;;5014892;28;20211;-48
2024/02/17 02:43:51;;;;;;;0.00;0.00;;;27.60;45.30;;;;;;5014842;28;20200;-48
2024/02/17 02:46:21;;;;;;;0.00;0.00;;;27.70;45.30;;;;;;5014666;28;20197;-44
2024/02/17 02:48:52;;;;;;;0.00;0.00;;;27.70;45.30;;;;;;5014674;28;20735;-44
2024/02/17 02:51:23;;;;;;;0.00;0.00;;;27.70;45.30;;;;;;5014807;28;20193;-45
2024/02/17 02:53:53;;;;;;;0.00;0.00;;;27.70;45.30;;;;;;5013734;28;20204;-45
2024/02/17 02:56:26;;;;;;;0.00;0.00;;;27.70;45.30;;;;;;5013856;28;20203;-44
2024/02/17 02:58:56;;;;;;;0.00;0.00;;;27.80;45.40;;;;;;5014120;28;20217;-48
2024/02/17 03:01:27;;;;;;;0.00;0.00;;;27.80;45.40;;;;;;5014248;28;20657;-43
2024/02/17 03:03:58;;;;;;;0.00;0.00;;;27.80;45.40;;;;;;5014091;28;20203;-45
2024/02/17 03:06:29;;;;;;;0.00;0.00;;;27.80;45.40;;;;;;5013992;28;20200;-44
2024/02/17 03:09:00;;;;;;;0.00;0.00;;;27.80;45.40;;;;;;5014091;28;20217;-44
2024/02/17 03:11:32;;;;;;;0.00;0.00;;;27.80;45.40;;;;;;5011132;28;20198;-46
2024/02/17 03:14:03;;;;;;;0.00;0.00;;;27.80;45.60;;;;;;5014122;28;20711;-44
2024/02/17 03:16:34;;;;;;;0.00;0.00;;;27.90;45.60;;;;;;5013514;28;20701;-45
2024/02/17 03:19:04;;;;;;;0.00;0.00;;;27.90;45.60;;;;;;5014201;28;20688;-45
2024/02/17 03:21:35;;;;;;;0.00;0.00;;;27.90;45.60;;;;;;5013869;28;20200;-45
2024/02/17 03:24:06;;;;;;;0.00;0.00;;;27.90;45.60;;;;;;5014163;28;20200;-47
2024/02/17 03:26:38;;;;;;;0.00;0.00;;;27.90;45.70;;;;;;5014005;28;20201;-45
2024/02/17 03:29:09;;;;;;;0.00;0.00;;;27.90;45.70;;;;;;5013581;28;20220;-44
2024/02/17 03:31:40;;;;;;;0.00;0.00;;;28.00;45.70;;;;;;5013941;28;20219;-45
2024/02/17 03:34:11;;;;;;;0.00;0.00;;;28.00;45.80;;;;;;5012416;28;20201;-45
2024/02/17 03:36:41;;;;;;;0.00;0.00;;;28.00;45.80;;;;;;5013637;28;20204;-43
2024/02/17 03:39:12;;;;;;;0.00;0.00;;;28.00;45.80;;;;;;5013728;28;20228;-46
2024/02/17 03:41:44;;;;;;;0.00;0.00;;;28.00;45.80;;;;;;5013157;28;20208;-44
2024/02/17 03:44:15;;;;;;;0.00;0.00;;;28.10;45.90;;;;;;5013113;28;20220;-47
2024/02/17 03:46:46;;;;;;;0.00;0.00;;;28.10;45.90;;;;;;5013014;28;20676;-46
2024/02/17 03:49:20;;;;;;;0.00;0.00;;;28.10;45.80;;;;;;5013374;28;20703;-48
2024/02/17 03:51:50;;;;;;;0.00;0.00;;;28.10;45.80;;;;;;5013800;28;20192;-45
2024/02/17 03:54:21;;;;;;;0.00;0.00;;;28.10;45.80;;;;;;5012741;28;20212;-48
2024/02/17 03:56:54;;;;;;;0.00;0.00;;;28.20;45.90;;;;;;5012702;28;20204;-46
2024/02/17 03:59:24;;;;;;;0.00;0.00;;;28.10;45.80;;;;;;5008202;28;20228;-45
2024/02/17 04:01:59;;;;;;;0.00;0.00;;;28.20;45.90;;;;;;4993699;28;20216;-46
2024/02/17 04:04:30;;;;;;;0.00;0.00;;;28.10;45.90;;;;;;4993942;28;20201;-43
2024/02/17 04:07:00;;;;;;;0.00;0.00;;;28.20;45.90;;;;;;4993821;28;20208;-43
2024/02/17 04:09:31;;;;;;;0.00;0.00;;;28.20;45.90;;;;;;4993371;28;20732;-45
2024/02/17 04:12:04;;;;;;;0.00;0.00;;;28.20;45.90;;;;;;4993074;28;20204;-46
2024/02/17 04:14:35;;;;;;;0.00;0.00;;;28.10;45.80;;;;;;4992765;28;20205;-46
2024/02/17 04:17:05;;;;;;;0.00;0.00;;;28.20;46.00;;;;;;4992838;28;20220;-46
2024/02/17 04:19:36;;;;;;;0.00;0.00;;;28.20;46.50;;;;;;4992741;28;20626;-45
2024/02/17 04:22:07;;;;;;;0.00;0.00;;;28.20;45.90;;;;;;4993392;28;20208;-49
2024/02/17 04:24:37;;;;;;;0.00;0.00;;;28.20;45.90;;;;;;4993044;28;20209;-49
2024/02/17 04:27:10;;;;;;;0.00;0.00;;;28.30;46.00;;;;;;4993718;28;20634;-45
2024/02/17 04:29:41;;;;;;;0.00;0.00;;;28.30;45.90;;;;;;4993006;28;20305;-47
2024/02/17 04:32:11;;;;;;;0.00;0.00;;;28.30;45.90;;;;;;4992636;28;20205;-43
2024/02/17 04:34:42;;;;;;;0.00;0.00;;;28.30;45.90;;;;;;4992680;28;20658;-47
2024/02/17 04:37:13;;;;;;;0.00;0.00;;;28.40;45.90;;;;;;4993521;28;20211;-48
2024/02/17 04:39:45;;;;;;;0.00;0.00;;;28.30;45.90;;;;;;4994049;28;20708;-44
2024/02/17 04:42:17;;;;;;;0.00;0.00;;;28.40;45.90;;;;;;5013034;28;20208;-45
2024/02/17 04:44:48;;;;;;;0.00;0.00;;;28.40;45.80;;;;;;5009770;28;20565;-42
2024/02/17 04:47:19;;;;;;;0.00;0.00;;;28.40;45.80;;;;;;5012426;28;20284;-44
2024/02/17 04:49:49;;;;;;;0.00;0.00;;;28.40;45.80;;;;;;5012388;28;20213;-42
2024/02/17 04:52:20;;;;;;;0.00;0.00;;;28.40;45.80;;;;;;5012284;28;20223;-46
2024/02/17 04:54:51;;;;;;;0.00;0.00;;;28.40;45.80;;;;;;5012318;28;20197;-44
2024/02/17 04:57:23;;;;;;;0.00;0.00;;;28.40;45.70;;;;;;5012003;28;20200;-48
2024/02/17 04:59:54;;;;;;;0.00;0.00;;;28.40;45.70;;;;;;5009969;28;20226;-41
2024/02/17 05:02:25;;;;;;;0.00;0.00;;;28.50;45.80;;;;;;5005765;28;20209;-44
2024/02/17 05:04:56;;;;;;;0.00;0.00;;;28.50;45.70;;;;;;5005667;28;20256;-46
2024/02/17 05:07:26;;;;;;;0.00;0.00;;;28.50;45.70;;;;;;5007990;28;20203;-47
2024/02/17 05:09:57;;;;;;;0.00;0.00;;;28.50;45.70;;;;;;5005942;28;20408;-51
2024/02/17 05:12:29;;;;;;;0.00;0.00;;;28.50;45.70;;;;;;4987915;28;20198;-49
2024/02/17 05:15:00;;;;;;;0.00;0.00;;;28.50;45.60;;;;;;5013205;28;20219;-44
2024/02/17 05:17:31;;;;;;;0.00;0.00;;;28.60;45.70;;;;;;5028208;28;20196;-46
2024/02/17 05:20:02;;;;;;;0.00;0.00;;;28.60;45.70;;;;;;5028251;28;20255;-44
2024/02/17 05:22:33;;;;;;;0.00;0.00;;;28.60;45.60;;;;;;5001486;28;20549;-42
2024/02/17 05:25:03;;;;;;;0.00;0.00;;;28.60;45.70;;;;;;4988602;28;20197;-46
2024/02/17 05:27:36;;;;;;;0.00;0.00;;;28.60;45.60;;;;;;4999341;28;20279;-42
2024/02/17 05:30:07;;;;;;;0.00;0.00;;;28.60;45.60;;;;;;5008282;28;20228;-43
2024/02/17 05:32:38;;;;;;;0.00;0.00;;;28.70;45.60;;;;;;5007700;28;20296;-43
2024/02/17 05:35:09;;;;;;;0.00;0.00;;;28.60;45.50;;;;;;5006900;28;20960;-44
2024/02/17 05:37:40;;;;;;;0.00;0.00;;;28.70;45.60;;;;;;5008375;28;20572;-46
2024/02/17 05:40:11;;;;;;;0.00;0.00;;;28.60;45.40;;;;;;5007672;28;20227;-46
2024/02/17 05:42:44;;;;;;;0.00;0.00;;;28.60;45.30;;;;;;5022683;28;20232;-45
2024/02/17 05:45:15;;;;;;;0.00;0.00;;;28.60;45.30;;;;;;5027477;28;20212;-45
2024/02/17 05:47:45;;;;;;;0.00;0.00;;;28.60;45.20;;;;;;5027912;28;20199;-44
2024/02/17 05:50:16;;;;;;;0.00;0.00;;;28.70;45.30;;;;;;5026803;28;20223;-45
2024/02/17 05:52:49;;;;;;;0.00;0.00;;;28.60;45.80;;;;;;5005964;28;20345;-48
2024/02/17 05:55:20;;;;;;;0.00;0.00;;;28.60;45.20;;;;;;5003270;28;20412;-41
2024/02/17 05:57:52;;;;;;;0.00;0.00;;;28.60;45.10;;;;;;5027179;28;20210;-41
2024/02/17 06:00:23;;;;;;;0.00;0.00;;;28.60;45.20;;;;;;5027451;28;20236;-49
2024/02/17 06:02:54;;;;;;;0.00;0.00;;;28.60;45.10;;;;;;5027030;28;20208;-47
2024/02/17 06:05:24;;;;;;;0.00;0.00;;;28.60;45.10;;;;;;5028077;28;20203;-50
2024/02/17 06:07:55;;;;;;;0.00;0.00;;;28.60;45.10;;;;;;5027036;28;20204;-42
2024/02/17 06:10:26;;;;;;;0.00;0.00;;;28.60;45.10;;;;;;4994590;28;20221;-42
2024/02/17 06:12:58;;;;;;;0.00;0.00;;;28.60;45.10;;;;;;4988341;28;20201;-49
2024/02/17 06:15:29;;;;;;;0.00;0.00;;;28.60;45.20;;;;;;4987492;28;20225;-50
2024/02/17 06:23:29;;;;;;;0.00;0.00;;;28.50;45.20;;;;;;5005123;28;20215;-46
2024/02/17 06:26:00;;;;;;;0.00;0.00;;;28.50;45.20;;;;;;5026992;28;20571;-49
2024/02/17 06:28:32;;;;;;;0.00;0.00;;;28.40;45.10;;;;;;5026855;28;20221;-47
2024/02/17 06:31:03;;;;;;;0.00;0.00;;;28.40;45.10;;;;;;5000717;28;20197;-49
2024/02/17 06:33:34;;;;;;;0.00;0.00;;;28.40;45.20;;;;;;4988647;28;20292;-49
2024/02/17 06:36:04;;;;;;;0.00;0.00;;;28.30;45.10;;;;;;4994270;28;20223;-47
2024/02/17 06:38:35;;;;;;;0.00;0.00;;;28.30;45.10;;;;;;5028049;28;20221;-46
2024/02/17 06:41:06;;;;;;;0.00;0.00;;;28.30;45.20;;;;;;5014688;28;20201;-49
2024/02/17 06:43:39;;;;;;;0.00;0.00;;;28.30;45.20;;;;;;5007489;28;20205;-48
2024/02/17 06:46:11;;;;;;;0.00;0.00;;;28.20;45.20;;;;;;5008465;28;20200;-49
2024/02/17 06:48:42;;;;;;;0.00;0.00;;;28.20;45.20;;;;;;5010941;28;20220;-48
2024/02/17 06:51:13;;;;;;;0.00;0.00;;;28.20;45.20;;;;;;5026250;28;20208;-48
2024/02/17 06:53:44;;;;;;;0.00;0.00;;;28.20;45.20;;;;;;5030483;28;20211;-49
2024/02/17 06:56:14;;;;;;;0.00;0.00;;;28.10;45.20;;;;;;5017244;28;20233;-50
2024/02/17 06:58:47;;;;;;;0.00;0.00;;;28.20;45.30;;;;;;5010087;28;20224;-50
2024/02/17 07:01:18;;;;;;;0.00;0.00;;;28.10;45.30;;;;;;5009696;28;20212;-48
2024/02/17 07:03:49;;;;;;;0.00;0.00;;;28.10;45.30;;;;;;5015549;28;20664;-50
2024/02/17 07:06:20;;;;;;;0.00;0.00;;;28.10;45.30;;;;;;5029866;28;20766;-49
2024/02/17 07:08:51;;;;;;;0.00;0.00;;;28.00;45.30;;;;;;5030585;28;20619;-49
2024/02/17 07:11:22;;;;;;;0.00;0.00;;;28.00;45.30;;;;;;5014947;28;20283;-52
2024/02/17 07:13:54;;;;;;;0.00;0.00;;;28.00;45.30;;;;;;5010470;28;20302;-47
2024/02/17 07:16:25;;;;;;;0.00;0.00;;;28.00;45.30;;;;;;5006661;28;20220;-49
2024/02/17 07:18:57;;;;;;;0.00;0.00;;;28.00;45.40;;;;;;5026980;28;20220;-47
2024/02/17 07:21:28;;;;;;;0.00;0.00;;;28.00;45.40;;;;;;5006628;28;20193;-49
2024/02/17 07:23:59;;;;;;;0.00;0.00;;;27.90;45.30;;;;;;4994041;28;20204;-49
2024/02/17 07:26:29;;;;;;;0.00;0.00;;;27.90;45.30;;;;;;4996574;28;20561;-49
2024/02/17 07:29:02;;;;;;;0.00;0.00;;;27.90;45.30;;;;;;4994090;28;20221;-46
2024/02/17 07:31:39;;;;;;;0.00;0.00;;;27.90;45.30;;;;;;4994182;28;20646;-47
2024/02/17 07:34:11;;;;;;;0.00;0.00;;;27.90;45.30;;;;;;4994344;28;20197;-50
2024/02/17 07:36:41;;;;;;;0.00;0.00;;;27.80;45.30;;;;;;4993280;28;20756;-49
2024/02/17 07:39:12;;;;;;;0.00;0.00;;;27.80;45.30;;;;;;4993962;28;20222;-50
2024/02/17 07:41:43;;;;;;;0.00;0.00;;;27.80;45.30;;;;;;5011288;28;20204;-50
2024/02/17 07:44:17;;;;;;;0.00;0.00;;;27.80;45.30;;;;;;5013075;28;20203;-49
2024/02/17 07:46:49;;;;;;;0.00;0.00;;;27.80;45.30;;;;;;5007618;28;20272;-49
2024/02/17 07:49:18;;;;;;;0.00;0.00;;;27.80;45.40;;;;;;4993696;28;20225;-48
2024/02/17 07:51:49;;;;;;;0.00;0.00;;;27.70;45.30;;;;;;4993418;28;20205;-50
2024/02/17 07:54:19;;;;;;;0.00;0.00;;;27.70;45.30;;;;;;4993687;28;20201;-49
2024/02/17 07:56:50;;;;;;;0.00;0.00;;;27.70;45.30;;;;;;4993626;28;20305;-50
2024/02/17 07:59:22;;;;;;;0.00;0.00;;;27.70;45.30;;;;;;4992734;28;20213;-50
2024/02/17 08:01:53;;;;;;;0.00;0.00;;;27.70;45.40;;;;;;4992883;28;20201;-50
2024/02/17 08:04:24;;;;;;;0.00;0.00;;;27.70;45.30;;;;;;4993479;28;20654;-49
2024/02/17 08:06:55;;;;;;;0.00;0.00;;;27.60;45.30;;;;;;4993051;28;20212;-50
2024/02/17 08:09:26;;;;;;;0.00;0.00;;;27.60;45.30;;;;;;4993512;28;20220;-50
2024/02/17 08:11:57;;;;;;;0.00;0.00;;;27.60;45.30;;;;;;5012596;28;20208;-49
2024/02/17 08:14:30;;;;;;;0.00;0.00;;;27.60;45.30;;;;;;5012644;28;20199;-52
2024/02/17 08:17:00;;;;;;;0.00;0.00;;;27.60;45.30;;;;;;5012373;28;20236;-52
2024/02/17 08:19:32;;;;;;;0.00;0.00;;;27.60;45.30;;;;;;5012501;28;20228;-53
2024/02/17 08:22:02;;;;;;;0.00;0.00;;;27.60;45.20;;;;;;5012180;28;20197;-50
2024/02/17 08:24:33;;;;;;;0.00;0.00;;;27.60;45.20;;;;;;5012567;28;20204;-53
2024/02/17 08:27:04;;;;;;;0.00;0.00;;;27.50;45.20;;;;;;5012637;28;20208;-49
2024/02/17 08:29:36;;;;;;;0.00;0.00;;;27.50;45.20;;;;;;5012584;28;20220;-50
2024/02/17 08:32:07;;;;;;;0.00;0.00;;;27.50;45.20;;;;;;5012503;28;20280;-48
2024/02/17 08:34:38;;;;;;;0.00;0.00;;;27.50;45.20;;;;;;5012334;28;20201;-49
2024/02/17 08:37:09;;;;;;;0.00;0.00;;;27.50;45.20;;;;;;5012373;28;20592;-49
2024/02/17 08:39:40;;;;;;;0.00;0.00;;;27.40;45.10;;;;;;5012854;28;20259;-51
2024/02/17 08:42:11;;;;;;;0.00;0.00;;;27.40;45.20;;;;;;5013083;28;20193;-44
2024/02/17 08:44:43;;;;;;;0.00;0.00;;;27.40;45.10;;;;;;5005529;28;20649;-51
2024/02/17 08:47:14;;;;;;;0.00;0.00;;;27.40;45.10;;;;;;4998773;28;20202;-49
2024/02/17 08:49:44;;;;;;;0.00;0.00;;;27.30;45.20;;;;;;4992931;28;20220;-47
2024/02/17 08:52:15;;;;;;;0.00;0.00;;;27.30;45.10;;;;;;4989688;28;20204;-49
2024/02/17 08:54:46;;;;;;;0.00;0.00;;;27.30;45.20;;;;;;4989017;28;20206;-50
2024/02/17 08:57:16;;;;;;;0.00;0.00;;;27.30;45.10;;;;;;5008629;28;20235;-50
2024/02/17 08:59:49;;;;;;;0.00;0.00;;;27.30;45.10;;;;;;5027680;28;20232;-47
2024/02/17 09:02:19;;;;;;;0.00;0.00;;;27.30;45.10;;;;;;5014401;28;20227;-50
2024/02/17 09:04:50;;;;;;;0.00;0.00;;;27.30;45.10;;;;;;5007679;28;20393;-49
2024/02/17 09:07:21;;;;;;;0.00;0.00;;;27.20;45.10;;;;;;5008138;28;20556;-47
2024/02/17 09:09:54;;;;;;;0.00;0.00;;;27.20;45.00;;;;;;5007915;28;20223;-48
2024/02/17 09:12:25;;;;;;;0.00;0.00;;;27.20;45.00;;;;;;5025157;28;20200;-47
2024/02/17 09:14:58;;;;;;;0.00;0.00;;;27.20;45.60;;;;;;5012527;28;20223;-50
2024/02/17 09:17:29;;;;;;;0.00;0.00;;;27.10;45.30;;;;;;5004754;28;20231;-49
2024/02/17 09:20:00;;;;;;;0.00;0.00;;;27.10;45.00;;;;;;5006832;28;20225;-45
2024/02/17 09:22:31;;;;;;;0.00;0.00;;;27.10;44.90;;;;;;5007973;28;20574;-47
2024/02/17 09:25:01;;;;;;;0.00;0.00;;;27.10;44.90;;;;;;5016234;28;20204;-50
2024/02/17 09:27:32;;;;;;;0.00;0.00;;;27.10;45.00;;;;;;5013093;28;20552;-44
2024/02/17 09:30:05;;;;;;;0.00;0.00;;;27.10;44.90;;;;;;4988261;28;20217;-48
2024/02/17 09:32:36;;;;;;;0.00;0.00;;;27.00;44.90;;;;;;4989063;28;20289;-49
2024/02/17 09:35:07;;;;;;;0.00;0.00;;;27.00;44.90;;;;;;4987540;28;20205;-44
2024/02/17 09:37:38;;;;;;;0.00;0.00;;;27.00;44.90;;;;;;4996668;28;20236;-44
2024/02/17 09:40:10;;;;;;;0.00;0.00;;;26.90;44.90;;;;;;4993238;28;20233;-48
2024/02/17 09:42:41;;;;;;;0.00;0.00;;;26.90;45.00;;;;;;5007737;28;20232;-46
2024/02/17 09:45:14;;;;;;;0.00;0.00;;;26.90;45.00;;;;;;5007705;28;20197;-46
2024/02/17 09:47:51;;;;;;;0.00;0.00;;;26.90;45.00;;;;;;5007479;28;20205;-41
2024/02/17 09:50:21;;;;;;;0.00;0.00;;;26.90;45.00;;;;;;5015945;28;20212;-42
2024/02/17 09:52:55;;;;;;;0.00;0.00;;;26.90;45.00;;;;;;5027422;28;20510;-42
2024/02/17 09:55:25;;;;;;;0.00;0.00;;;26.80;44.90;;;;;;5027361;28;20686;-48
2024/02/17 09:57:56;;;;;;;0.00;0.00;;;26.80;44.90;;;;;;5026428;28;20623;-41
2024/02/17 10:00:29;;;;;;;0.00;0.00;;;26.80;44.90;;;;;;4996648;28;20229;-42
2024/02/17 10:03:03;;;;;;;0.00;0.00;;;26.80;44.90;;;;;;4988982;28;20561;-50
2024/02/17 10:05:34;;;;;;;0.00;0.00;;;26.70;44.80;;;;;;5026533;28;20241;-44
2024/02/17 10:08:08;;;;;;;0.00;0.00;;;26.70;44.90;;;;;;5026398;28;20684;-45
2024/02/17 10:10:39;;;;;;;0.00;0.00;;;26.70;44.90;;;;;;5019431;28;20668;-41
2024/02/17 10:13:16;;;;;;;0.00;0.00;;;26.70;44.80;;;;;;5007743;28;20691;-47
2024/02/17 10:15:49;;;;;;;0.00;0.00;;;26.70;44.80;;;;;;5007641;28;20203;-46
2024/02/17 10:18:20;;;;;;;0.00;0.00;;;26.60;44.80;;;;;;5024737;28;20223;-50
2024/02/17 10:20:55;;;;;;;0.00;0.00;;;26.60;44.80;;;;;;5017756;28;20201;-48
2024/02/17 10:23:26;;;;;;;0.00;0.00;;;26.60;44.80;;;;;;4991467;28;20208;-46
2024/02/17 10:25:59;;;;;;;0.00;0.00;;;26.50;44.70;;;;;;4991326;28;20259;-47
2024/02/17 10:28:30;;;;;;;0.00;0.00;;;26.50;44.80;;;;;;4994810;28;20697;-48
2024/02/17 10:31:04;;;;;;;0.00;0.00;;;26.50;44.80;;;;;;5030669;28;20200;-42
2024/02/17 10:33:35;;;;;;;0.00;0.00;;;26.40;44.80;;;;;;5031549;28;20298;-42
2024/02/17 10:36:07;;;;;;;0.00;0.00;;;26.50;44.90;;;;;;5022557;28;20200;-44
2024/02/17 10:38:38;;;;;;;0.00;0.00;;;26.40;44.80;;;;;;5010186;28;20720;-45
2024/02/17 10:41:09;;;;;;;0.00;0.00;;;26.40;44.90;;;;;;5011894;28;20209;-49
2024/02/17 10:43:43;;;;;;;0.00;0.00;;;26.40;44.90;;;;;;5029472;28;20208;-49
2024/02/17 10:46:19;;;;;;;0.00;0.00;;;26.40;44.90;;;;;;5030729;28;20207;-47
2024/02/17 10:48:59;;;;;;;0.00;0.00;;;26.30;44.80;;;;;;5029748;28;20216;-48
2024/02/17 10:51:30;;;;;;;0.00;0.00;;;26.30;44.80;;;;;;5030491;28;20200;-48
2024/02/17 10:54:06;;;;;;;0.00;0.00;;;26.30;44.80;;;;;;5030403;28;20249;-49
2024/02/17 10:56:38;;;;;;;0.00;0.00;;;26.20;44.70;;;;;;5030267;28;20203;-49
2024/02/17 10:59:10;;;;;;;0.00;0.00;;;26.20;44.80;;;;;;5030344;28;20688;-44
2024/02/17 11:01:43;;;;;;;0.00;0.00;;;26.20;44.80;;;;;;5027385;28;20212;-47
2024/02/17 11:04:14;;;;;;;0.00;0.00;;;26.20;44.80;;;;;;5010302;28;20212;-42
2024/02/17 11:06:46;;;;;;;0.00;0.00;;;26.20;44.80;;;;;;5009457;28;20215;-45
2024/02/17 11:09:17;;;;;;;0.00;0.00;;;26.20;44.80;;;;;;5017079;28;20220;-49
2024/02/17 11:11:47;;;;;;;0.00;0.00;;;26.20;44.80;;;;;;5011792;28;20556;-42
2024/02/17 11:14:44;;;;;;;0.00;0.00;;;26.10;44.80;;;;;;5010732;28;20201;-48
2024/02/17 11:17:16;;;;;;;0.00;0.00;;;26.10;44.80;;;;;;4986044;28;20236;-43
2024/02/17 11:19:50;;;;;;;0.00;0.00;;;26.00;44.70;;;;;;5010615;28;20228;-46
2024/02/17 11:22:29;;;;;;;0.00;0.00;;;26.00;44.80;;;;;;5014651;28;20209;-49
2024/02/17 11:25:00;;;;;;;0.00;0.00;;;26.00;44.80;;;;;;5009797;28;20208;-44
2024/02/17 11:27:33;;;;;;;0.00;0.00;;;26.00;44.90;;;;;;5007098;28;20192;-41
2024/02/17 11:30:05;;;;;;;0.00;0.00;;;25.90;44.80;;;;;;5010083;28;20312;-41
2024/02/17 11:32:40;;;;;;;0.00;0.00;;;25.90;44.80;;;;;;5008560;28;20586;-49
2024/02/17 11:35:11;;;;;;;0.00;0.00;;;25.90;44.90;;;;;;5014270;28;20231;-50
2024/02/17 11:37:44;;;;;;;0.00;0.00;;;25.90;44.80;;;;;;5025644;28;20227;-50
2024/02/17 11:40:15;;;;;;;0.00;0.00;;;25.80;44.90;;;;;;5007489;28;20304;-44
2024/02/17 11:42:46;;;;;;;0.00;0.00;;;25.80;44.90;;;;;;5010315;28;20208;-44
2024/02/17 11:45:17;;;;;;;0.00;0.00;;;25.80;44.90;;;;;;5010470;28;20189;-41
2024/02/17 11:47:50;;;;;;;0.00;0.00;;;25.80;44.90;;;;;;5013431;28;20197;-44
2024/02/17 11:50:21;;;;;;;0.00;0.00;;;25.80;44.90;;;;;;5013667;28;20720;-42
2024/02/17 11:52:52;;;;;;;0.00;0.00;;;25.70;44.80;;;;;;5008022;28;20200;-40
2024/02/17 11:55:24;;;;;;;0.00;0.00;;;25.70;44.80;;;;;;5003809;28;20189;-43
2024/02/17 11:58:05;;;;;;;0.00;0.00;;;25.70;44.80;;;;;;5002197;28;20212;-40
2024/02/17 12:00:37;;;;;;;0.00;0.00;;;25.70;44.80;;;;;;5003872;28;20197;-41
2024/02/17 12:03:10;;;;;;;0.00;0.00;;;25.70;44.80;;;;;;5002946;28;20197;-41
2024/02/17 12:05:41;;;;;;;0.00;0.00;;;25.60;44.80;;;;;;5003886;28;20197;-42
2024/02/17 12:08:13;;;;;;;0.00;0.00;;;25.60;44.80;;;;;;5003139;28;20650;-42
2024/02/17 12:10:44;;;;;;;0.00;0.00;;;25.60;44.80;;;;;;5003917;28;20232;-42
2024/02/17 12:13:15;;;;;;;0.00;0.00;;;25.60;44.90;;;;;;5003665;28;20190;-44
2024/02/17 12:15:45;;;;;;;0.00;0.00;;;25.60;44.90;;;;;;5003284;28;20201;-44
2024/02/17 12:18:19;;;;;;;0.00;0.00;;;25.50;44.90;;;;;;5003387;28;20275;-40
2024/02/17 12:20:51;;;;;;;0.00;0.00;;;25.50;44.90;;;;;;5003260;28;20202;-40
2024/02/17 12:23:22;;;;;;;0.00;0.00;;;25.50;44.90;;;;;;5003532;28;20660;-40
2024/02/17 12:25:53;;;;;;;0.00;0.00;;;25.50;44.90;;;;;;5003286;28;20197;-41
2024/02/17 12:28:25;;;;;;;0.00;0.00;;;25.50;44.90;;;;;;5003418;28;20217;-41
2024/02/17 12:30:56;;;;;;;0.00;0.00;;;25.50;44.90;;;;;;5003042;28;20233;-42
2024/02/17 12:33:29;;;;;;;0.00;0.00;;;25.40;44.90;;;;;;5004366;28;20191;-42
2024/02/17 12:36:00;;;;;;;0.00;0.00;;;25.40;45.50;;;;;;5012556;28;20201;-41
2024/02/17 12:38:30;;;;;;;0.00;0.00;;;25.40;44.90;;;;;;5012510;28;20235;-43
2024/02/17 12:41:04;;;;;;;0.00;0.00;;;25.40;44.90;;;;;;5013094;28;20207;-41
2024/02/17 12:43:36;;;;;;;0.00;0.00;;;25.30;44.80;;;;;;5011900;28;20209;-40
2024/02/17 12:46:21;;;;;;;0.00;0.00;;;25.30;44.80;;;;;;5011388;28;20192;-40
2024/02/17 12:48:54;;;;;;;0.00;0.00;;;25.30;44.90;;;;;;5012401;28;20613;-51
2024/02/17 12:51:28;;;;;;;0.00;0.00;;;25.30;44.80;;;;;;5012648;28;20557;-44
2024/02/17 12:53:59;;;;;;;0.00;0.00;;;25.30;44.80;;;;;;5012203;28;20201;-53
2024/02/17 12:56:30;;;;;;;0.00;0.00;;;25.30;44.90;;;;;;5011669;28;20558;-51
2024/02/17 12:59:01;;;;;;;0.00;0.00;;;25.30;44.90;;;;;;5011568;28;20609;-54
2024/02/17 13:01:31;;;;;;;0.00;0.00;;;25.20;44.90;;;;;;5011969;28;20215;-50
2024/02/17 13:04:04;;;;;;;0.10;0.10;;;25.20;44.90;;;;;;5012007;28;20209;-52
2024/02/17 13:06:37;;;;;;;0.00;0.00;;;25.20;44.90;;;;;;5011780;28;20208;-47
2024/02/17 13:09:08;;;;;;;0.00;0.00;;;25.20;44.90;;;;;;5011880;28;20279;-49
2024/02/17 13:11:41;;;;;;;0.00;0.00;;;25.20;45.00;;;;;;5012059;28;20799;-49
2024/02/17 13:14:12;;;;;;;0.00;0.00;;;25.10;44.90;;;;;;5011401;28;20277;-52